createdAt,value
2019-01-09T00:01:28.802Z,13.80
2019-01-09T00:04:00.894Z,11.07
2019-01-09T00:06:34.718Z,8.50
2019-01-09T00:09:10.839Z,9.70
2019-01-09T00:11:44.864Z,12.97
2019-01-09T00:14:18.112Z,4.13
2019-01-09T00:16:52.786Z,12.50
2019-01-09T00:19:27.605Z,13.37
2019-01-09T00:22:01.089Z,13.87
2019-01-09T00:24:35.306Z,9.97
2019-01-09T00:27:08.626Z,12.73
2019-01-09T00:29:40.943Z,9.63
2019-01-09T00:32:14.764Z,12.67
2019-01-09T00:34:51.121Z,18.47
2019-01-09T00:37:25.232Z,18.37
2019-01-09T00:39:59.148Z,17.07
2019-01-09T00:42:32.972Z,15.43
2019-01-09T00:45:05.486Z,13.20
2019-01-09T00:47:38.981Z,18.07
2019-01-09T00:50:11.872Z,20.57
2019-01-09T00:52:44.388Z,15.90
2019-01-09T00:55:16.700Z,16.57
2019-01-09T00:57:49.516Z,20.03
2019-01-09T01:00:22.396Z,19.13
2019-01-09T01:03:51.772Z,16.40
2019-01-09T01:06:49.424Z,21.37
2019-01-09T01:10:13.194Z,16.60
2019-01-09T01:13:24.930Z,22.47
2019-01-09T01:16:36.583Z,22.60
2019-01-09T01:20:02.303Z,17.80
2019-01-09T01:23:24.613Z,21.43
2019-01-09T01:26:35.828Z,24.83
2019-01-09T01:29:47.539Z,15.10
2019-01-09T01:32:52.429Z,23.53
2019-01-09T01:35:40.113Z,27.97
2019-01-09T01:38:28.610Z,21.67
2019-01-09T01:41:22.553Z,20.23
2019-01-09T01:44:01.375Z,23.00
2019-01-09T01:47:13.217Z,19.57
2019-01-09T01:50:22.767Z,24.23
2019-01-09T01:53:49.710Z,18.97
2019-01-09T01:56:51.594Z,18.87
2019-01-09T02:00:01.069Z,16.83
2019-01-09T02:03:06.356Z,23.67
2019-01-09T02:05:49.861Z,19.63
2019-01-09T02:08:33.676Z,17.60
2019-01-09T02:11:45.097Z,17.83
2019-01-09T02:15:01.023Z,17.17
2019-01-09T02:17:57.574Z,23.10
2019-01-09T02:20:58.486Z,17.07
2019-01-09T02:24:10.458Z,17.53
2019-01-09T02:27:34.451Z,16.23
2019-01-09T02:30:45.071Z,16.07
2019-01-09T02:33:17.698Z,21.40
2019-01-09T02:35:50.710Z,20.33
2019-01-09T02:38:22.839Z,18.40
2019-01-09T02:40:56.671Z,17.20
2019-01-09T02:43:29.437Z,12.17
2019-01-09T02:46:01.802Z,10.63
2019-01-09T02:48:36.533Z,13.60
2019-01-09T02:51:13.165Z,11.13
2019-01-09T02:53:46.898Z,17.00
2019-01-09T02:56:21.683Z,15.00
2019-01-09T02:58:55.483Z,16.33
2019-01-09T03:01:29.130Z,9.23
2019-01-09T03:04:02.928Z,19.20
2019-01-09T03:06:37.227Z,17.67
2019-01-09T03:09:11.161Z,15.80
2019-01-09T03:11:44.456Z,16.20
2019-01-09T03:14:17.581Z,10.73
2019-01-09T03:16:52.369Z,16.83
2019-01-09T03:19:25.865Z,11.10
2019-01-09T03:21:59.262Z,12.93
2019-01-09T03:24:32.413Z,12.00
2019-01-09T03:27:05.951Z,9.23
2019-01-09T03:29:39.045Z,13.83
2019-01-09T03:32:12.882Z,14.83
2019-01-09T03:34:46.465Z,10.87
2019-01-09T03:37:20.027Z,16.63
2019-01-09T03:39:53.147Z,9.87
2019-01-09T03:42:28.111Z,11.50
2019-01-09T03:45:01.842Z,15.13
2019-01-09T03:47:36.256Z,14.80
2019-01-09T03:50:09.950Z,14.07
2019-01-09T03:52:44.306Z,10.03
2019-01-09T03:55:17.767Z,11.00
2019-01-09T03:57:50.969Z,13.73
2019-01-09T04:00:24.704Z,12.67
2019-01-09T04:02:57.865Z,12.17
2019-01-09T04:05:31.707Z,12.30
2019-01-09T04:08:04.824Z,12.57
2019-01-09T04:10:38.121Z,20.40
2019-01-09T04:13:11.878Z,10.93
2019-01-09T04:15:46.302Z,11.07
2019-01-09T04:18:20.882Z,12.27
2019-01-09T04:20:54.594Z,10.97
2019-01-09T04:23:28.036Z,8.57
2019-01-09T04:26:01.413Z,9.10
2019-01-09T04:28:35.264Z,13.93
2019-01-09T04:31:09.115Z,7.20
2019-01-09T04:33:44.694Z,9.77
2019-01-09T04:36:18.289Z,9.23
2019-01-09T04:38:51.238Z,6.37
2019-01-09T04:41:24.104Z,9.43
2019-01-09T04:43:57.505Z,12.70
2019-01-09T04:46:31.689Z,9.50
2019-01-09T04:49:05.050Z,17.67
2019-01-09T04:51:38.977Z,10.20
2019-01-09T04:54:12.282Z,10.87
2019-01-09T04:56:46.045Z,9.40
2019-01-09T04:59:20.187Z,12.43
2019-01-09T05:01:53.826Z,16.83
2019-01-09T05:04:27.519Z,9.83
2019-01-09T05:07:00.948Z,19.20
2019-01-09T05:09:34.697Z,10.77
2019-01-09T05:12:08.316Z,17.37
2019-01-09T05:14:42.476Z,14.33
2019-01-09T05:17:16.342Z,9.93
2019-01-09T05:19:49.591Z,13.87
2019-01-09T05:22:24.210Z,15.30
2019-01-09T05:24:57.802Z,19.17
2019-01-09T05:27:31.254Z,14.70
2019-01-09T05:30:05.578Z,12.37
2019-01-09T05:32:38.911Z,16.37
2019-01-09T05:35:11.956Z,11.33
2019-01-09T05:37:45.629Z,10.87
2019-01-09T05:40:20.643Z,19.90
2019-01-09T05:42:54.340Z,10.20
2019-01-09T05:45:28.309Z,12.47
2019-01-09T05:48:02.566Z,14.60
2019-01-09T05:50:36.886Z,20.00
2019-01-09T05:53:09.764Z,13.37
2019-01-09T05:55:44.578Z,15.87
2019-01-09T05:58:18.328Z,17.30
2019-01-09T06:00:53.612Z,17.30
2019-01-09T06:03:29.093Z,14.30
2019-01-09T06:06:03.517Z,13.17
2019-01-09T06:08:37.091Z,12.73
2019-01-09T06:11:10.825Z,21.37
2019-01-09T06:13:45.936Z,16.17
2019-01-09T06:16:19.698Z,19.60
2019-01-09T06:18:54.014Z,21.53
2019-01-09T06:21:27.884Z,16.40
2019-01-09T06:24:00.333Z,15.57
2019-01-09T06:26:32.314Z,18.30
2019-01-09T06:29:05.787Z,20.87
2019-01-09T06:31:38.072Z,14.27
2019-01-09T06:34:09.859Z,14.90
2019-01-09T06:36:41.975Z,17.03
2019-01-09T06:39:14.144Z,17.13
2019-01-09T06:41:46.979Z,17.30
2019-01-09T06:44:19.287Z,18.00
2019-01-09T06:46:52.930Z,17.57
2019-01-09T06:49:24.784Z,20.93
2019-01-09T06:51:56.511Z,13.63
2019-01-09T06:54:29.164Z,23.30
2019-01-09T06:57:01.457Z,14.07
2019-01-09T06:59:36.374Z,24.07
2019-01-09T07:02:08.483Z,25.80
2019-01-09T07:04:40.438Z,19.40
2019-01-09T07:07:12.715Z,17.33
2019-01-09T07:09:44.659Z,20.30
2019-01-09T07:12:17.858Z,16.70
2019-01-09T07:14:50.912Z,24.50
2019-01-09T07:17:23.884Z,19.30
2019-01-09T07:19:57.568Z,22.13
2019-01-09T07:22:30.757Z,14.03
2019-01-09T07:25:04.226Z,20.90
2019-01-09T07:27:37.981Z,14.40
2019-01-09T07:30:11.572Z,18.00
2019-01-09T07:32:44.685Z,17.20
2019-01-09T07:35:17.796Z,24.37
2019-01-09T07:37:50.794Z,18.03
2019-01-09T07:40:25.265Z,21.33
2019-01-09T07:42:58.746Z,20.53
2019-01-09T07:45:31.926Z,21.60
2019-01-09T07:48:06.383Z,22.47
2019-01-09T07:50:39.651Z,25.27
2019-01-09T07:53:13.737Z,14.90
2019-01-09T07:55:47.206Z,17.37
2019-01-09T07:58:20.797Z,21.77
2019-01-09T08:00:53.803Z,22.37
2019-01-09T08:03:28.657Z,19.20
2019-01-09T08:06:02.598Z,23.67
2019-01-09T08:08:36.092Z,21.13
2019-01-09T08:11:08.474Z,19.17
2019-01-09T08:13:42.153Z,20.20
2019-01-09T08:16:15.504Z,23.97
2019-01-09T08:18:48.621Z,20.50
2019-01-09T08:21:22.494Z,17.43
2019-01-09T08:23:55.157Z,22.57
2019-01-09T08:26:30.480Z,21.53
2019-01-09T08:29:03.851Z,26.53
2019-01-09T08:31:37.571Z,22.87
2019-01-09T08:34:09.911Z,38.40
2019-01-09T08:36:46.154Z,22.23
2019-01-09T08:39:18.965Z,31.90
2019-01-09T08:41:52.527Z,36.63
2019-01-09T08:44:26.055Z,46.87
2019-01-09T08:46:57.966Z,41.97
2019-01-09T08:49:31.026Z,33.07
2019-01-09T08:52:04.480Z,73.93
2019-01-09T08:54:41.186Z,39.57
2019-01-09T08:57:15.193Z,29.60
2019-01-09T08:59:49.712Z,39.93
2019-01-09T09:02:23.243Z,22.37
2019-01-09T09:04:55.075Z,24.47
2019-01-09T09:07:30.116Z,20.27
2019-01-09T09:10:03.274Z,22.17
2019-01-09T09:12:37.969Z,17.80
2019-01-09T09:15:13.573Z,20.00
2019-01-09T09:17:47.329Z,18.60
2019-01-09T09:20:20.564Z,15.33
2019-01-09T09:22:55.229Z,18.73
2019-01-09T09:25:28.740Z,18.03
2019-01-09T09:28:03.792Z,20.03
2019-01-09T09:30:37.015Z,12.30
2019-01-09T09:33:10.319Z,20.50
2019-01-09T09:35:43.939Z,19.37
2019-01-09T09:38:20.747Z,18.53
2019-01-09T09:40:52.945Z,17.77
2019-01-09T09:43:26.187Z,17.73
2019-01-09T09:45:59.845Z,11.10
2019-01-09T09:48:33.193Z,13.93
2019-01-09T09:51:06.814Z,16.87
2019-01-09T09:53:40.852Z,18.13
2019-01-09T09:56:13.977Z,11.57
2019-01-09T09:58:47.966Z,17.67
2019-01-09T10:01:21.454Z,18.00
2019-01-09T10:03:55.448Z,16.27
2019-01-09T10:06:28.825Z,17.80
2019-01-09T10:09:02.243Z,12.77
2019-01-09T10:11:35.420Z,15.10
2019-01-09T10:14:08.294Z,12.13
2019-01-09T10:16:41.604Z,11.67
2019-01-09T10:19:15.127Z,14.03
2019-01-09T10:21:48.870Z,26.67
2019-01-09T10:24:22.134Z,16.83
2019-01-09T10:26:55.691Z,19.07
2019-01-09T10:29:29.108Z,17.27
2019-01-09T10:32:02.339Z,15.67
2019-01-09T10:34:35.765Z,18.53
2019-01-09T10:37:10.116Z,16.77
2019-01-09T10:39:45.727Z,20.27
2019-01-09T10:42:19.410Z,18.83
2019-01-09T10:44:53.312Z,21.40
2019-01-09T10:47:27.129Z,19.83
2019-01-09T10:50:00.371Z,11.93
2019-01-09T10:52:33.463Z,15.23
2019-01-09T10:55:07.898Z,15.67
2019-01-09T10:57:41.239Z,24.73
2019-01-09T11:00:17.290Z,16.13
2019-01-09T11:02:51.800Z,13.67
2019-01-09T11:05:25.576Z,11.43
2019-01-09T11:07:59.035Z,14.17
2019-01-09T11:10:32.531Z,11.60
2019-01-09T11:13:06.407Z,22.03
2019-01-09T11:15:39.450Z,19.27
2019-01-09T11:18:12.514Z,13.40
2019-01-09T11:20:46.432Z,9.80
2019-01-09T11:23:20.126Z,17.90
2019-01-09T11:25:54.029Z,10.27
2019-01-09T11:28:28.151Z,11.03
2019-01-09T11:31:01.450Z,9.73
2019-01-09T11:33:35.292Z,12.37
2019-01-09T11:36:08.503Z,12.53
2019-01-09T11:38:43.403Z,7.67
2019-01-09T11:41:17.113Z,15.20
2019-01-09T11:43:49.884Z,9.67
2019-01-09T11:46:22.821Z,8.83
2019-01-09T11:48:59.138Z,12.90
2019-01-09T11:51:32.407Z,9.83
2019-01-09T11:54:05.837Z,10.87
2019-01-09T11:56:39.207Z,8.63
2019-01-09T11:59:12.521Z,16.70
2019-01-09T12:01:45.380Z,8.73
2019-01-09T12:04:18.656Z,11.87
2019-01-09T12:06:52.024Z,13.60
2019-01-09T12:09:24.926Z,8.60
2019-01-09T12:11:59.191Z,9.87
2019-01-09T12:14:32.595Z,16.17
2019-01-09T12:17:05.830Z,8.93
2019-01-09T12:19:39.898Z,11.40
2019-01-09T12:22:12.899Z,10.87
2019-01-09T12:24:46.277Z,18.33
2019-01-09T12:27:19.269Z,11.17
2019-01-09T12:29:54.423Z,12.20
2019-01-09T12:32:27.425Z,9.63
2019-01-09T12:35:03.335Z,10.57
2019-01-09T12:37:36.335Z,12.13
2019-01-09T12:40:09.989Z,6.50
2019-01-09T12:42:43.242Z,6.87
2019-01-09T12:45:17.511Z,7.70
2019-01-09T12:47:51.871Z,10.03
2019-01-09T12:50:28.279Z,10.40
2019-01-09T12:53:02.013Z,10.37
2019-01-09T12:55:35.217Z,8.70
2019-01-09T12:58:08.675Z,8.07
2019-01-09T13:00:42.222Z,11.27
2019-01-09T13:03:16.452Z,8.53
2019-01-09T13:05:50.173Z,11.13
2019-01-09T13:08:23.843Z,7.07
2019-01-09T13:10:57.928Z,10.07
2019-01-09T13:13:31.883Z,9.93
2019-01-09T13:16:05.433Z,8.10
2019-01-09T13:18:38.305Z,11.53
2019-01-09T13:21:11.916Z,8.97
2019-01-09T13:23:45.740Z,6.90
2019-01-09T13:26:19.369Z,7.80
2019-01-09T13:28:53.028Z,13.13
2019-01-09T13:31:27.048Z,10.43
2019-01-09T13:34:00.553Z,10.43
2019-01-09T13:36:34.352Z,9.43
2019-01-09T13:39:09.595Z,8.37
2019-01-09T13:41:44.438Z,7.90
2019-01-09T13:44:18.591Z,8.50
2019-01-09T13:46:49.635Z,7.60
2019-01-09T13:49:21.219Z,12.53
2019-01-09T13:51:53.011Z,7.20
2019-01-09T13:54:26.846Z,8.50
2019-01-09T13:57:01.884Z,5.17
2019-01-09T13:59:34.087Z,10.00
2019-01-09T14:02:05.710Z,8.17
2019-01-09T14:04:38.968Z,8.30
2019-01-09T14:07:12.220Z,9.63
2019-01-09T14:09:45.427Z,12.97
2019-01-09T14:12:18.604Z,5.97
2019-01-09T14:14:51.891Z,8.90
2019-01-09T14:17:25.652Z,11.60
2019-01-09T14:19:58.819Z,8.80
2019-01-09T14:22:33.120Z,8.93
2019-01-09T14:25:07.374Z,8.10
2019-01-09T14:27:40.814Z,10.67
2019-01-09T14:30:16.481Z,9.60
2019-01-09T14:32:50.018Z,7.60
2019-01-09T14:35:21.338Z,4.67
2019-01-09T14:37:55.232Z,4.43
2019-01-09T14:40:29.344Z,8.03
2019-01-09T14:43:02.809Z,12.83
2019-01-09T14:45:37.206Z,9.57
2019-01-09T14:48:11.299Z,10.80
2019-01-09T14:50:45.118Z,9.03
2019-01-09T14:53:18.908Z,10.13
2019-01-09T14:55:54.137Z,10.10
2019-01-09T14:58:25.716Z,7.60
2019-01-09T15:00:59.103Z,6.17
2019-01-09T15:03:31.813Z,7.77
2019-01-09T15:06:04.348Z,13.60
2019-01-09T15:08:38.976Z,7.77
2019-01-09T15:11:15.747Z,6.83
2019-01-09T15:13:50.984Z,8.07
2019-01-09T15:16:22.516Z,11.80
2019-01-09T15:18:56.483Z,10.67
2019-01-09T15:21:29.891Z,5.70
2019-01-09T15:24:08.377Z,8.37
2019-01-09T15:26:36.912Z,9.00
2019-01-09T15:29:07.686Z,9.50
2019-01-09T15:31:38.882Z,8.97
2019-01-09T15:34:09.769Z,14.87
2019-01-09T15:36:40.937Z,13.20
2019-01-09T15:39:15.979Z,13.27
2019-01-09T15:41:48.051Z,10.80
2019-01-09T15:44:18.819Z,10.97
2019-01-09T15:46:49.422Z,9.93
2019-01-09T15:49:23.424Z,10.77
2019-01-09T15:51:56.714Z,14.27
2019-01-09T15:54:29.952Z,17.47
2019-01-09T15:57:02.599Z,11.57
2019-01-09T15:59:33.418Z,12.67
2019-01-09T16:02:05.421Z,7.80
2019-01-09T16:04:36.326Z,12.50
2019-01-09T16:07:07.952Z,7.10
2019-01-09T16:09:41.275Z,9.33
2019-01-09T16:12:12.969Z,6.50
2019-01-09T16:14:45.731Z,14.47
2019-01-09T16:17:19.594Z,5.07
2019-01-09T16:19:52.005Z,11.63
2019-01-09T16:22:22.621Z,8.10
2019-01-09T16:24:54.545Z,9.77
2019-01-09T16:27:27.166Z,9.87
2019-01-09T16:29:59.415Z,8.77
2019-01-09T16:32:32.118Z,12.73
2019-01-09T16:35:04.670Z,7.97
2019-01-09T16:37:37.428Z,12.87
2019-01-09T16:40:10.391Z,14.93
2019-01-09T16:42:41.087Z,11.53
2019-01-09T16:45:13.726Z,12.27
2019-01-09T16:47:47.498Z,9.23
2019-01-09T16:50:20.700Z,11.83
2019-01-09T16:52:52.826Z,11.00
2019-01-09T16:55:26.693Z,11.43
2019-01-09T16:57:58.881Z,11.27
2019-01-09T17:00:31.897Z,12.30
2019-01-09T17:03:05.744Z,12.37
2019-01-09T17:05:39.330Z,9.33
2019-01-09T17:08:10.099Z,10.30
2019-01-09T17:10:40.873Z,12.33
2019-01-09T17:13:13.219Z,15.23
2019-01-09T17:15:45.068Z,11.67
2019-01-09T17:18:19.309Z,17.73
2019-01-09T17:20:51.664Z,10.93
2019-01-09T17:23:24.533Z,15.43
2019-01-09T17:25:57.553Z,15.17
2019-01-09T17:28:30.591Z,17.07
2019-01-09T17:31:02.286Z,11.73
2019-01-09T17:33:35.351Z,13.70
2019-01-09T17:36:08.248Z,17.47
2019-01-09T17:38:39.991Z,13.03
2019-01-09T17:41:13.124Z,12.83
2019-01-09T17:43:45.608Z,8.90
2019-01-09T17:47:09.015Z,7.03
2019-01-09T17:49:48.686Z,9.53
2019-01-09T17:52:23.189Z,18.13
2019-01-09T17:54:55.310Z,9.63
2019-01-09T17:57:26.532Z,13.87
2019-01-09T17:59:59.427Z,15.80
2019-01-09T18:02:34.451Z,14.67
2019-01-09T18:05:19.807Z,4.73
2019-01-09T18:07:52.462Z,9.57
2019-01-09T18:10:25.581Z,17.27
2019-01-09T18:12:57.857Z,11.90
2019-01-09T18:15:29.861Z,10.07
2019-01-09T18:18:02.222Z,14.77
2019-01-09T18:20:35.087Z,11.23
2019-01-09T18:23:07.893Z,10.57
2019-01-09T18:25:41.707Z,13.83
2019-01-09T18:28:16.979Z,14.53
2019-01-09T18:31:18.564Z,10.77
2019-01-09T18:34:25.167Z,14.53
2019-01-09T18:37:37.704Z,16.20
2019-01-09T18:41:09.755Z,9.23
2019-01-09T18:44:04.338Z,9.00
2019-01-09T18:47:16.834Z,8.07
2019-01-09T18:50:32.290Z,11.07
2019-01-09T18:53:10.573Z,6.73
2019-01-09T18:55:45.381Z,16.67
2019-01-09T18:58:18.456Z,11.80
2019-01-09T19:00:52.158Z,11.93
2019-01-09T19:03:27.569Z,12.47
2019-01-09T19:06:02.915Z,10.43
2019-01-09T19:08:36.963Z,9.60
2019-01-09T19:11:10.714Z,9.47
2019-01-09T19:13:44.178Z,10.77
2019-01-09T19:16:17.329Z,12.73
2019-01-09T19:18:51.338Z,14.87
2019-01-09T19:21:26.442Z,8.50
2019-01-09T19:24:01.365Z,11.73
2019-01-09T19:26:35.071Z,11.33
2019-01-09T19:29:09.295Z,13.27
2019-01-09T19:31:44.589Z,16.30
2019-01-09T19:34:18.855Z,11.20
2019-01-09T19:36:52.752Z,16.77
2019-01-09T19:39:26.883Z,9.27
2019-01-09T19:42:03.150Z,15.03
2019-01-09T19:44:40.059Z,11.27
2019-01-09T19:47:14.019Z,12.47
2019-01-09T19:49:50.296Z,20.23
2019-01-09T19:52:25.610Z,10.10
2019-01-09T19:55:00.931Z,9.47
2019-01-09T19:57:38.746Z,12.10
2019-01-09T20:00:16.380Z,18.57
2019-01-09T20:02:51.969Z,16.17
2019-01-09T20:05:36.156Z,10.03
2019-01-09T20:08:17.684Z,13.33
2019-01-09T20:10:54.518Z,15.53
2019-01-09T20:13:33.104Z,14.10
2019-01-09T20:16:07.922Z,14.53
2019-01-09T20:18:43.289Z,20.43
2019-01-09T20:21:17.809Z,15.33
2019-01-09T20:23:53.063Z,13.33
2019-01-09T20:26:27.124Z,14.60
2019-01-09T20:29:01.584Z,19.00
2019-01-09T20:31:36.853Z,18.20
2019-01-09T20:34:11.609Z,17.60
2019-01-09T20:36:45.485Z,14.77
2019-01-09T20:39:19.319Z,14.00
2019-01-09T20:41:53.851Z,15.33
2019-01-09T20:44:28.732Z,15.50
2019-01-09T20:47:03.133Z,12.13
2019-01-09T20:49:39.879Z,12.50
2019-01-09T20:52:14.648Z,23.70
2019-01-09T20:54:49.966Z,10.77
2019-01-09T20:57:26.752Z,19.27
2019-01-09T21:00:02.006Z,13.37
2019-01-09T21:02:40.331Z,11.73
2019-01-09T21:05:18.049Z,15.67
2019-01-09T21:07:52.101Z,13.97
2019-01-09T21:10:27.318Z,12.07
2019-01-09T21:13:01.725Z,10.77
2019-01-09T21:15:38.181Z,12.13
2019-01-09T21:18:12.742Z,12.60
2019-01-09T21:20:54.550Z,16.00
2019-01-09T21:23:33.230Z,11.13
2019-01-09T21:26:08.400Z,12.57
2019-01-09T21:28:42.063Z,12.47
2019-01-09T21:31:16.473Z,13.73
2019-01-09T21:33:50.904Z,13.33
2019-01-09T21:36:25.231Z,15.13
2019-01-09T21:39:00.196Z,18.07
2019-01-09T21:41:35.782Z,12.87
2019-01-09T21:44:15.922Z,14.87
2019-01-09T21:46:46.638Z,14.63
2019-01-09T21:49:21.486Z,18.40
2019-01-09T21:51:54.922Z,13.90
2019-01-09T21:54:28.896Z,13.30
2019-01-09T21:57:02.416Z,12.63
2019-01-09T21:59:38.594Z,16.57
2019-01-09T22:02:13.313Z,13.57
2019-01-09T22:04:49.110Z,16.23
2019-01-09T22:07:22.570Z,16.47
2019-01-09T22:09:56.385Z,16.43
2019-01-09T22:12:28.216Z,14.33
2019-01-09T22:15:02.888Z,15.03
2019-01-09T22:17:38.015Z,9.73
2019-01-09T22:20:12.967Z,20.53
2019-01-09T22:22:48.516Z,9.50
2019-01-09T22:25:22.805Z,10.40
2019-01-09T22:27:56.683Z,14.37
2019-01-09T22:30:31.254Z,15.37
2019-01-09T22:33:04.526Z,15.70
2019-01-09T22:35:41.411Z,10.37
2019-01-09T22:38:12.358Z,13.67
2019-01-09T22:40:49.550Z,13.57
2019-01-09T22:43:24.288Z,19.17
2019-01-09T22:45:58.163Z,17.30
2019-01-09T22:48:31.734Z,12.73
2019-01-09T22:51:06.025Z,23.27
2019-01-09T22:53:39.969Z,18.07
2019-01-09T22:56:14.344Z,13.27
2019-01-09T22:58:48.149Z,20.43
2019-01-09T23:01:30.563Z,15.23
2019-01-09T23:04:04.915Z,15.23
2019-01-09T23:06:38.625Z,18.90
2019-01-09T23:09:13.145Z,14.53
2019-01-09T23:11:47.665Z,19.53
2019-01-09T23:14:22.020Z,12.80
2019-01-09T23:16:58.012Z,14.30
2019-01-09T23:19:32.030Z,14.83
2019-01-09T23:22:05.818Z,11.87
2019-01-09T23:24:42.189Z,19.83
2019-01-09T23:27:16.047Z,19.13
2019-01-09T23:29:51.135Z,12.40
2019-01-09T23:32:25.452Z,13.40
2019-01-09T23:35:00.924Z,14.50
2019-01-09T23:37:34.145Z,11.40
2019-01-09T23:40:07.845Z,14.03
2019-01-09T23:42:42.481Z,16.80
2019-01-09T23:45:17.683Z,13.57
2019-01-09T23:47:51.990Z,11.83
2019-01-09T23:50:26.158Z,24.93
2019-01-09T23:53:00.044Z,10.87
2019-01-09T23:55:33.755Z,18.10
2019-01-09T23:58:07.833Z,11.40
